sensor_id;sensor_type;location;lat;lon;timestamp;P1;durP1;ratioP1;P2;durP2;ratioP2
1214;SDS011;597;51.998;5.880;2023-04-01T00:02:07;8.60;;;4.70;;
1214;SDS011;597;51.998;5.880;2023-04-01T00:04:51;12.83;;;4.83;;
1214;SDS011;597;51.998;5.880;2023-04-01T00:07:36;10.00;;;5.50;;
1214;SDS011;597;51.998;5.880;2023-04-01T00:10:20;11.53;;;5.53;;
1214;SDS011;597;51.998;5.880;2023-04-01T00:13:05;9.10;;;5.73;;
1214;SDS011;597;51.998;5.880;2023-04-01T00:15:49;9.07;;;5.43;;
1214;SDS011;597;51.998;5.880;2023-04-01T00:18:33;6.90;;;4.63;;
1214;SDS011;597;51.998;5.880;2023-04-01T00:21:17;8.70;;;5.27;;
1214;SDS011;597;51.998;5.880;2023-04-01T00:24:01;11.15;;;5.35;;
1214;SDS011;597;51.998;5.880;2023-04-01T00:26:45;12.53;;;5.80;;
1214;SDS011;597;51.998;5.880;2023-04-01T00:29:31;7.23;;;5.17;;
1214;SDS011;597;51.998;5.880;2023-04-01T00:32:16;8.82;;;5.53;;
1214;SDS011;597;51.998;5.880;2023-04-01T00:35:00;9.57;;;6.00;;
1214;SDS011;597;51.998;5.880;2023-04-01T00:37:44;13.50;;;5.83;;
1214;SDS011;597;51.998;5.880;2023-04-01T00:40:30;8.60;;;6.30;;
1214;SDS011;597;51.998;5.880;2023-04-01T00:43:18;11.88;;;7.85;;
1214;SDS011;597;51.998;5.880;2023-04-01T00:46:02;10.33;;;8.07;;
1214;SDS011;597;51.998;5.880;2023-04-01T00:48:51;14.13;;;7.72;;
1214;SDS011;597;51.998;5.880;2023-04-01T00:51:36;20.10;;;8.97;;
1214;SDS011;597;51.998;5.880;2023-04-01T00:54:23;17.57;;;9.53;;
1214;SDS011;597;51.998;5.880;2023-04-01T00:57:22;15.40;;;9.97;;
1214;SDS011;597;51.998;5.880;2023-04-01T01:00:09;15.53;;;9.97;;
1214;SDS011;597;51.998;5.880;2023-04-01T01:02:54;15.97;;;9.80;;
1214;SDS011;597;51.998;5.880;2023-04-01T01:05:42;19.17;;;12.00;;
1214;SDS011;597;51.998;5.880;2023-04-01T01:08:33;20.97;;;12.30;;
1214;SDS011;597;51.998;5.880;2023-04-01T01:11:29;21.23;;;11.70;;
1214;SDS011;597;51.998;5.880;2023-04-01T01:32:15;31.27;;;17.50;;
1214;SDS011;597;51.998;5.880;2023-04-01T01:35:20;26.37;;;17.70;;
1214;SDS011;597;51.998;5.880;2023-04-01T01:38:08;34.37;;;18.00;;
1214;SDS011;597;51.998;5.880;2023-04-01T01:40:53;37.13;;;17.63;;
1214;SDS011;597;51.998;5.880;2023-04-01T01:43:43;23.33;;;15.20;;
1214;SDS011;597;51.998;5.880;2023-04-01T01:46:28;22.90;;;14.17;;
1214;SDS011;597;51.998;5.880;2023-04-01T01:49:16;23.30;;;14.17;;
1214;SDS011;597;51.998;5.880;2023-04-01T01:52:01;21.07;;;11.93;;
1214;SDS011;597;51.998;5.880;2023-04-01T01:54:52;20.73;;;10.47;;
1214;SDS011;597;51.998;5.880;2023-04-01T01:57:36;23.97;;;12.47;;
1214;SDS011;597;51.998;5.880;2023-04-01T02:00:21;24.20;;;12.80;;
1214;SDS011;597;51.998;5.880;2023-04-01T02:03:05;30.63;;;12.33;;
1214;SDS011;597;51.998;5.880;2023-04-01T02:05:50;30.77;;;15.13;;
1214;SDS011;597;51.998;5.880;2023-04-01T02:08:36;37.23;;;15.50;;
1214;SDS011;597;51.998;5.880;2023-04-01T02:11:24;38.77;;;16.50;;
1214;SDS011;597;51.998;5.880;2023-04-01T02:16:58;38.20;;;16.67;;
1214;SDS011;597;51.998;5.880;2023-04-01T02:19:54;31.13;;;15.17;;
1214;SDS011;597;51.998;5.880;2023-04-01T02:22:52;36.67;;;14.60;;
1214;SDS011;597;51.998;5.880;2023-04-01T02:25:37;35.33;;;13.87;;
1214;SDS011;597;51.998;5.880;2023-04-01T02:28:21;32.73;;;13.33;;
1214;SDS011;597;51.998;5.880;2023-04-01T02:31:07;23.63;;;11.00;;
1214;SDS011;597;51.998;5.880;2023-04-01T02:33:51;26.10;;;10.17;;
1214;SDS011;597;51.998;5.880;2023-04-01T02:36:35;19.40;;;10.30;;
1214;SDS011;597;51.998;5.880;2023-04-01T02:39:19;29.50;;;10.05;;
1214;SDS011;597;51.998;5.880;2023-04-01T02:42:04;20.13;;;9.17;;
1214;SDS011;597;51.998;5.880;2023-04-01T02:44:48;21.63;;;9.40;;
1214;SDS011;597;51.998;5.880;2023-04-01T02:47:32;19.90;;;9.60;;
1214;SDS011;597;51.998;5.880;2023-04-01T02:50:16;19.60;;;9.70;;
1214;SDS011;597;51.998;5.880;2023-04-01T02:53:00;19.10;;;9.80;;
1214;SDS011;597;51.998;5.880;2023-04-01T02:55:44;20.57;;;9.33;;
1214;SDS011;597;51.998;5.880;2023-04-01T02:58:28;14.97;;;7.57;;
1214;SDS011;597;51.998;5.880;2023-04-01T03:01:12;21.40;;;7.60;;
1214;SDS011;597;51.998;5.880;2023-04-01T03:03:56;16.40;;;7.77;;
1214;SDS011;597;51.998;5.880;2023-04-01T03:06:40;16.47;;;7.73;;
1214;SDS011;597;51.998;5.880;2023-04-01T03:09:24;14.60;;;9.17;;
1214;SDS011;597;51.998;5.880;2023-04-01T03:12:08;20.60;;;8.27;;
1214;SDS011;597;51.998;5.880;2023-04-01T03:14:52;27.47;;;9.57;;
1214;SDS011;597;51.998;5.880;2023-04-01T03:17:36;21.70;;;9.20;;
1214;SDS011;597;51.998;5.880;2023-04-01T03:20:20;12.30;;;8.40;;
1214;SDS011;597;51.998;5.880;2023-04-01T03:23:04;14.10;;;7.20;;
1214;SDS011;597;51.998;5.880;2023-04-01T03:25:48;18.80;;;8.67;;
1214;SDS011;597;51.998;5.880;2023-04-01T03:28:32;18.17;;;8.53;;
1214;SDS011;597;51.998;5.880;2023-04-01T03:31:16;15.70;;;8.60;;
1214;SDS011;597;51.998;5.880;2023-04-01T03:33:59;14.40;;;8.77;;
1214;SDS011;597;51.998;5.880;2023-04-01T03:36:43;22.70;;;10.17;;
1214;SDS011;597;51.998;5.880;2023-04-01T03:39:27;16.25;;;8.32;;
1214;SDS011;597;51.998;5.880;2023-04-01T03:42:11;15.57;;;8.20;;
1214;SDS011;597;51.998;5.880;2023-04-01T03:44:55;14.47;;;9.70;;
1214;SDS011;597;51.998;5.880;2023-04-01T03:47:39;16.03;;;9.83;;
1214;SDS011;597;51.998;5.880;2023-04-01T03:50:23;16.63;;;9.30;;
1214;SDS011;597;51.998;5.880;2023-04-01T03:53:07;18.40;;;11.43;;
1214;SDS011;597;51.998;5.880;2023-04-01T03:55:51;19.60;;;10.67;;
1214;SDS011;597;51.998;5.880;2023-04-01T03:58:35;19.07;;;11.13;;
1214;SDS011;597;51.998;5.880;2023-04-01T04:01:20;20.65;;;10.20;;
1214;SDS011;597;51.998;5.880;2023-04-01T04:04:04;23.37;;;12.57;;
1214;SDS011;597;51.998;5.880;2023-04-01T04:06:49;18.55;;;9.75;;
1214;SDS011;597;51.998;5.880;2023-04-01T04:09:34;16.35;;;10.27;;
1214;SDS011;597;51.998;5.880;2023-04-01T04:12:17;15.43;;;9.52;;
1214;SDS011;597;51.998;5.880;2023-04-01T04:15:01;17.67;;;11.05;;
1214;SDS011;597;51.998;5.880;2023-04-01T04:17:45;13.90;;;9.70;;
1214;SDS011;597;51.998;5.880;2023-04-01T04:20:29;15.80;;;10.07;;
1214;SDS011;597;51.998;5.880;2023-04-01T04:23:13;18.73;;;9.20;;
1214;SDS011;597;51.998;5.880;2023-04-01T04:25:58;19.27;;;8.25;;
1214;SDS011;597;51.998;5.880;2023-04-01T04:28:42;14.60;;;8.50;;
1214;SDS011;597;51.998;5.880;2023-04-01T04:31:26;15.40;;;10.37;;
1214;SDS011;597;51.998;5.880;2023-04-01T04:34:10;18.02;;;10.20;;
1214;SDS011;597;51.998;5.880;2023-04-01T04:36:54;21.07;;;12.60;;
1214;SDS011;597;51.998;5.880;2023-04-01T04:39:39;13.73;;;9.80;;
1214;SDS011;597;51.998;5.880;2023-04-01T04:42:23;15.43;;;10.00;;
1214;SDS011;597;51.998;5.880;2023-04-01T04:45:07;17.90;;;11.32;;
1214;SDS011;597;51.998;5.880;2023-04-01T04:47:51;19.40;;;10.90;;
1214;SDS011;597;51.998;5.880;2023-04-01T04:50:35;16.30;;;11.23;;
1214;SDS011;597;51.998;5.880;2023-04-01T04:53:19;15.10;;;9.20;;
1214;SDS011;597;51.998;5.880;2023-04-01T04:56:03;16.65;;;10.57;;
1214;SDS011;597;51.998;5.880;2023-04-01T04:58:47;15.10;;;11.17;;
1214;SDS011;597;51.998;5.880;2023-04-01T05:01:31;15.70;;;9.93;;
1214;SDS011;597;51.998;5.880;2023-04-01T05:04:17;16.57;;;9.67;;
1214;SDS011;597;51.998;5.880;2023-04-01T05:07:01;13.48;;;8.95;;
1214;SDS011;597;51.998;5.880;2023-04-01T05:09:45;12.87;;;8.33;;
1214;SDS011;597;51.998;5.880;2023-04-01T05:12:29;16.23;;;9.27;;
1214;SDS011;597;51.998;5.880;2023-04-01T05:15:13;12.50;;;7.97;;
1214;SDS011;597;51.998;5.880;2023-04-01T05:17:58;12.80;;;7.70;;
1214;SDS011;597;51.998;5.880;2023-04-01T05:20:52;11.63;;;7.63;;
1214;SDS011;597;51.998;5.880;2023-04-01T05:23:36;11.60;;;8.50;;
1214;SDS011;597;51.998;5.880;2023-04-01T05:26:21;13.30;;;8.45;;
1214;SDS011;597;51.998;5.880;2023-04-01T05:29:04;13.70;;;8.40;;
1214;SDS011;597;51.998;5.880;2023-04-01T05:31:48;12.20;;;8.57;;
1214;SDS011;597;51.998;5.880;2023-04-01T05:34:32;14.40;;;8.50;;
1214;SDS011;597;51.998;5.880;2023-04-01T05:37:16;13.70;;;7.73;;
1214;SDS011;597;51.998;5.880;2023-04-01T05:40:00;14.07;;;7.67;;
1214;SDS011;597;51.998;5.880;2023-04-01T05:42:44;13.37;;;8.83;;
1214;SDS011;597;51.998;5.880;2023-04-01T05:45:28;17.73;;;9.97;;
1214;SDS011;597;51.998;5.880;2023-04-01T05:48:12;16.10;;;9.10;;
1214;SDS011;597;51.998;5.880;2023-04-01T05:50:56;19.17;;;10.67;;
1214;SDS011;597;51.998;5.880;2023-04-01T05:53:41;19.27;;;10.00;;
1214;SDS011;597;51.998;5.880;2023-04-01T05:56:25;21.63;;;11.40;;
1214;SDS011;597;51.998;5.880;2023-04-01T05:59:10;22.60;;;11.00;;
1214;SDS011;597;51.998;5.880;2023-04-01T06:01:54;25.50;;;12.97;;
1214;SDS011;597;51.998;5.880;2023-04-01T06:04:38;32.20;;;12.80;;
1214;SDS011;597;51.998;5.880;2023-04-01T06:07:22;34.10;;;14.07;;
1214;SDS011;597;51.998;5.880;2023-04-01T06:10:11;43.77;;;16.23;;
1214;SDS011;597;51.998;5.880;2023-04-01T06:16:17;32.03;;;15.67;;
1214;SDS011;597;51.998;5.880;2023-04-01T06:19:39;30.47;;;13.97;;
1214;SDS011;597;51.998;5.880;2023-04-01T06:27:42;35.77;;;16.60;;
1214;SDS011;597;51.998;5.880;2023-04-01T06:30:43;43.93;;;16.90;;
1214;SDS011;597;51.998;5.880;2023-04-01T06:36:33;38.37;;;15.13;;
1214;SDS011;597;51.998;5.880;2023-04-01T06:44:58;44.87;;;17.90;;
1214;SDS011;597;51.998;5.880;2023-04-01T06:53:46;23.60;;;10.00;;
1214;SDS011;597;51.998;5.880;2023-04-01T06:56:33;21.90;;;10.07;;
1214;SDS011;597;51.998;5.880;2023-04-01T06:59:20;27.97;;;10.70;;
1214;SDS011;597;51.998;5.880;2023-04-01T07:02:11;16.97;;;9.10;;
1214;SDS011;597;51.998;5.880;2023-04-01T07:04:56;16.93;;;7.80;;
1214;SDS011;597;51.998;5.880;2023-04-01T07:07:42;27.43;;;10.57;;
1214;SDS011;597;51.998;5.880;2023-04-01T07:13:21;20.30;;;9.37;;
1214;SDS011;597;51.998;5.880;2023-04-01T07:16:15;18.53;;;7.67;;
1214;SDS011;597;51.998;5.880;2023-04-01T07:22:04;17.77;;;8.53;;
1214;SDS011;597;51.998;5.880;2023-04-01T07:24:49;13.50;;;6.10;;
1214;SDS011;597;51.998;5.880;2023-04-01T07:27:33;12.83;;;6.00;;
1214;SDS011;597;51.998;5.880;2023-04-01T07:30:18;13.03;;;6.07;;
1214;SDS011;597;51.998;5.880;2023-04-01T07:33:07;8.93;;;4.60;;
1214;SDS011;597;51.998;5.880;2023-04-01T07:35:58;15.30;;;4.53;;
1214;SDS011;597;51.998;5.880;2023-04-01T07:51:02;6.23;;;3.27;;
1214;SDS011;597;51.998;5.880;2023-04-01T07:53:51;7.90;;;3.83;;
1214;SDS011;597;51.998;5.880;2023-04-01T07:59:37;6.63;;;3.60;;
1214;SDS011;597;51.998;5.880;2023-04-01T08:02:29;7.97;;;4.10;;
1214;SDS011;597;51.998;5.880;2023-04-01T08:08:06;7.57;;;4.17;;
1214;SDS011;597;51.998;5.880;2023-04-01T08:11:05;8.17;;;4.00;;
1214;SDS011;597;51.998;5.880;2023-04-01T08:13:53;7.10;;;4.73;;
1214;SDS011;597;51.998;5.880;2023-04-01T08:16:55;9.27;;;5.17;;
1214;SDS011;597;51.998;5.880;2023-04-01T08:22:42;5.20;;;3.70;;
1214;SDS011;597;51.998;5.880;2023-04-01T08:25:28;4.70;;;3.23;;
1214;SDS011;597;51.998;5.880;2023-04-01T08:34:13;2.40;;;1.90;;
1214;SDS011;597;51.998;5.880;2023-04-01T08:37:00;2.80;;;2.10;;
1214;SDS011;597;51.998;5.880;2023-04-01T08:39:48;3.43;;;1.90;;
1214;SDS011;597;51.998;5.880;2023-04-01T08:48:33;1.70;;;1.53;;
1214;SDS011;597;51.998;5.880;2023-04-01T08:59:57;2.33;;;1.80;;
1214;SDS011;597;51.998;5.880;2023-04-01T09:08:45;2.53;;;2.33;;
1214;SDS011;597;51.998;5.880;2023-04-01T09:17:38;6.50;;;2.00;;
1214;SDS011;597;51.998;5.880;2023-04-01T09:20:38;2.60;;;2.40;;
1214;SDS011;597;51.998;5.880;2023-04-01T09:31:49;3.77;;;2.70;;
1214;SDS011;597;51.998;5.880;2023-04-01T09:37:34;3.20;;;2.90;;
1214;SDS011;597;51.998;5.880;2023-04-01T09:58:22;4.43;;;3.40;;
1214;SDS011;597;51.998;5.880;2023-04-01T10:01:53;4.53;;;3.90;;
1214;SDS011;597;51.998;5.880;2023-04-01T10:33:27;10.40;;;5.97;;
1214;SDS011;597;51.998;5.880;2023-04-01T11:02:48;11.63;;;8.60;;
1214;SDS011;597;51.998;5.880;2023-04-01T11:14:48;9.97;;;7.70;;
1214;SDS011;597;51.998;5.880;2023-04-01T11:21:07;16.23;;;8.03;;
1214;SDS011;597;51.998;5.880;2023-04-01T11:29:24;3.10;;;2.20;;
1214;SDS011;597;51.998;5.880;2023-04-01T11:41:27;2.53;;;2.30;;
1214;SDS011;597;51.998;5.880;2023-04-01T11:44:25;3.33;;;2.53;;
1214;SDS011;597;51.998;5.880;2023-04-01T11:50:03;3.50;;;2.00;;
1214;SDS011;597;51.998;5.880;2023-04-01T12:01:40;5.80;;;2.90;;
1214;SDS011;597;51.998;5.880;2023-04-01T12:04:38;5.93;;;2.37;;
1214;SDS011;597;51.998;5.880;2023-04-01T12:07:34;4.90;;;2.80;;
1214;SDS011;597;51.998;5.880;2023-04-01T12:10:29;3.50;;;2.53;;
1214;SDS011;597;51.998;5.880;2023-04-01T12:13:24;6.53;;;2.30;;
1214;SDS011;597;51.998;5.880;2023-04-01T12:19:17;4.30;;;2.60;;
1214;SDS011;597;51.998;5.880;2023-04-01T12:28:20;3.00;;;2.70;;
1214;SDS011;597;51.998;5.880;2023-04-01T12:33:56;5.27;;;3.33;;
1214;SDS011;597;51.998;5.880;2023-04-01T12:45:19;3.50;;;3.20;;
1214;SDS011;597;51.998;5.880;2023-04-01T12:51:14;4.20;;;3.57;;
1214;SDS011;597;51.998;5.880;2023-04-01T13:02:49;4.23;;;3.73;;
1214;SDS011;597;51.998;5.880;2023-04-01T13:08:27;4.97;;;4.33;;
1214;SDS011;597;51.998;5.880;2023-04-01T13:14:08;5.43;;;4.93;;
1214;SDS011;597;51.998;5.880;2023-04-01T13:25:45;5.40;;;4.60;;
1214;SDS011;597;51.998;5.880;2023-04-01T13:28:32;10.70;;;4.07;;
